Aérodrome :
LOGIN :

S'inscrire | Disclaimer

   EN    FR    IT 

 










Légende :    VFR   VFR Marginal   IFR   IFR Intensif   IFR Très Intensif
Visi : 
Plafond : 
>= 8 km
>= 3000ft
5 à 8 km
1000 à 3000 ft
1500m à 5 km
500 à 1000 ft
800 à 1500m
200 à 500 ft
< 800m
< 200 ft
Symboles :   Orages  Brouillard  Fortes neiges  Fortes précipitations  Vent > 20 kt
SIGMETs :   Divers  Orages  Givrage  Turbulence  Onde Orograph.  Cendres Volcan.






- Altitude de l'aérodrome : 37 ft


EHVL - Vlieland Heliport

DERNIER METAR :
  • 141355Z AUTO 28015KT 9999 FEW022 11/04 Q1021 BLU

METARs EXPIRÉS :
  • 141337Z AUTO 28016KT 9999 SCT022 12/05 Q1021 WHT
  • 141325Z AUTO 28016KT 9999 BKN020 12/05 Q1021 WHT
  • 141313Z AUTO 28016KT 9999 SCT020 SCT031 12/05 Q1021 WHT
  • 141255Z AUTO 28016KT 9999 FEW021 SCT025 11/05 Q1021 BLU
  • 141226Z AUTO 28017KT 9999 FEW021 SCT035 11/05 Q1022 BLU
  • 141209Z AUTO 27019KT 9999 SCT021 SCT040 12/05 Q1021 WHT
  • 141155Z AUTO 28019KT 9999 SCT021 12/06 Q1022 WHT
  • 141137Z AUTO 28019KT 9999 FEW021 SCT024 BKN037 12/06 Q1022 WHT
  • 141133Z AUTO 28019KT 9999 FEW024 SCT027 12/05 Q1022 BLU
  • 141055Z AUTO 27020KT 9999 FEW022 12/05 Q1022 BLU
  • 141038Z AUTO 27021KT 9999 SCT020 SCT028 12/06 Q1022 WHT
  • 141026Z AUTO 27020KT 9999 FEW020 SCT023 12/05 Q1022 WHT
  • 141017Z AUTO 27019KT 9999 FEW022 12/06 Q1022 BLU
  • 141003Z AUTO 27021KT 9999 SCT023 SCT031 12/06 Q1022 WHT
  • 140955Z AUTO 28020KT 9999 FEW030 11/05 Q1022 BLU
  • 140925Z AUTO 27020KT 9999 SCT025 SCT029 12/05 Q1021 BLU

Prévision TAF périmée.



MET'MAP, la Météo Aéronautique d'un coup d'oeil ! - Copyright ORBIFLY Décembre 2007 - Disclaimer

ORBIFLY MET'MAP TEAM :

Programmation & Développement : Alexandra Zaïnal
Sur une idée originale de : Baudouin d'Aumeries
Soutien technique & logistique : Manuel Goepfert
Assistance : Marc-Olivier Méhu




SOURCES & CREDITS :

   NOAA